Time;durP1;ratioP1;P1;durP2;ratioP2;P2;SDS_P1;SDS_P2;PMS_P1;PMS_P2;Temp;Humidity;BMP_temperature;BMP_pressure;BME280_temperature;BME280_humidity;BME280_pressure;Samples;Min_cycle;Max_cycle;Signal;HPM_P1;HPM_P2
2022/11/07 00:01:28;;;;;;;;;8.25;8.00;;;;;21.60;60.66;100365.31;5060406;28;50981;-57
2022/11/07 00:03:54;;;;;;;;;12.75;10.00;;;;;21.61;60.45;100361.72;5059583;28;62138;-57
2022/11/07 00:06:19;;;;;;;;;10.50;8.00;;;;;21.59;60.54;100366.25;5042088;28;45261;-57
2022/11/07 00:08:44;;;;;;;;;10.00;8.25;;;;;21.59;60.42;100368.91;5058206;28;70837;-57
2022/11/07 00:11:10;;;;;;;;;13.00;8.25;;;;;21.59;60.24;100365.41;5060609;28;45211;-57
2022/11/07 00:13:35;;;;;;;;;10.50;7.75;;;;;21.60;60.22;100375.09;5059147;28;67004;-57
2022/11/07 00:16:05;;;;;;;;;8.00;7.25;;;;;21.60;60.32;100375.09;5058788;28;51302;-57
2022/11/07 00:18:31;;;;;;;;;8.25;7.25;;;;;21.58;60.31;100372.50;5060296;28;47206;-57
2022/11/07 00:21:07;;;;;;;;;9.50;8.50;;;;;21.59;60.21;100370.69;5042012;28;45308;-57
2022/11/07 00:23:33;;;;;;;;;8.75;8.00;;;;;21.58;60.38;100377.81;5059262;28;45512;-57
2022/11/07 00:26:06;;;;;;;;;11.25;8.50;;;;;21.58;60.29;100388.44;5059933;28;45295;-57
2022/11/07 00:28:35;;;;;;;;;10.25;7.50;;;;;21.58;60.02;100382.25;5058805;28;45421;-57
2022/11/07 00:31:00;;;;;;;;;9.00;8.00;;;;;21.57;60.13;100375.22;5059861;28;45256;-57
2022/11/07 00:33:26;;;;;;;;;8.75;8.75;;;;;21.57;60.36;100385.84;5050147;28;63123;-57
2022/11/07 00:35:51;;;;;;;;;8.00;7.00;;;;;21.57;60.73;100381.41;5055660;28;48489;-58
2022/11/07 00:38:17;;;;;;;;;8.00;6.00;;;;;21.57;60.50;100369.91;5059664;28;46415;-57
2022/11/07 00:40:42;;;;;;;;;7.50;7.00;;;;;21.58;60.27;100382.25;5059300;28;59288;-57
2022/11/07 00:43:07;;;;;;;;;7.75;6.00;;;;;21.58;60.55;100384.91;5058121;28;60534;-57
2022/11/07 00:45:33;;;;;;;;;7.75;7.75;;;;;21.57;60.21;100380.53;5041860;28;45243;-58
2022/11/07 00:47:58;;;;;;;;;9.50;7.50;;;;;21.57;60.04;100381.41;5059179;28;62550;-57
2022/11/07 00:50:24;;;;;;;;;9.50;8.25;;;;;21.56;59.97;100376.16;5058304;28;72167;-57
2022/11/07 00:52:49;;;;;;;;;7.25;6.25;;;;;21.55;60.42;100380.59;5057769;28;63181;-57
2022/11/07 00:55:14;;;;;;;;;7.50;6.75;;;;;21.55;60.35;100377.94;5058878;28;64641;-57
2022/11/07 00:57:40;;;;;;;;;8.50;7.50;;;;;21.54;60.08;100370.88;5057544;28;72820;-57
2022/11/07 01:00:06;;;;;;;;;9.25;7.00;;;;;21.55;59.85;100379.75;5058895;28;61864;-57
2022/11/07 01:02:31;;;;;;;;;6.50;6.50;;;;;21.55;60.05;100374.44;5059762;28;45256;-57
2022/11/07 01:05:11;;;;;;;;;5.75;5.75;;;;;21.54;60.31;100370.03;5061302;28;68313;-57
2022/11/07 01:07:38;;;;;;;;;3.25;3.00;;;;;21.54;60.35;100372.69;5062962;28;46202;-57
2022/11/07 01:10:04;;;;;;;;;10.00;6.50;;;;;21.53;60.19;100368.28;5062836;28;46413;-57
2022/11/07 01:12:32;;;;;;;;;7.00;5.00;;;;;21.54;59.90;100367.38;5063045;28;45309;-58
2022/11/07 01:14:57;;;;;;;;;5.00;5.00;;;;;21.53;60.36;100376.25;5062864;28;45335;-57
2022/11/07 01:17:23;;;;;;;;;6.00;6.00;;;;;21.53;60.33;100374.47;5062942;28;45973;-57
2022/11/07 01:19:48;;;;;;;;;8.50;6.00;;;;;21.53;60.46;100381.56;5061607;28;45291;-57
2022/11/07 01:22:14;;;;;;;;;6.75;6.00;;;;;21.52;60.18;100379.84;5060732;28;69216;-57
2022/11/07 01:24:39;;;;;;;;;10.75;6.00;;;;;21.51;59.96;100386.97;5061952;28;68199;-58
2022/11/07 01:27:04;;;;;;;;;8.75;7.00;;;;;21.51;60.34;100389.59;5061821;28;70617;-57
2022/11/07 01:29:30;;;;;;;;;7.50;5.75;;;;;21.50;60.48;100385.22;5060471;28;68713;-57
2022/11/07 01:31:55;;;;;;;;;6.00;5.75;;;;;21.49;59.95;100386.16;5061795;28;45285;-57
2022/11/07 01:34:20;;;;;;;;;8.25;6.50;;;;;21.49;60.45;100387.97;5062058;28;57935;-58
2022/11/07 01:36:46;;;;;;;;;6.25;6.00;;;;;21.48;60.37;100389.75;5061614;28;68483;-58
2022/11/07 01:39:11;;;;;;;;;9.00;7.00;;;;;21.48;60.19;100388.88;5061440;28;45281;-58
2022/11/07 01:41:38;;;;;;;;;8.50;7.50;;;;;21.47;60.52;100393.34;5061838;28;62210;-57
2022/11/07 01:44:06;;;;;;;;;5.25;5.25;;;;;21.47;60.47;100393.34;5061297;28;45414;-57
2022/11/07 01:46:39;;;;;;;;;6.25;5.75;;;;;21.45;60.17;100396.03;5062406;28;46307;-58
2022/11/07 01:49:08;;;;;;;;;5.50;5.00;;;;;21.45;59.92;100409.31;5062388;28;45402;-58
2022/11/07 01:51:42;;;;;;;;;6.50;6.00;;;;;21.47;60.29;100403.97;5060823;28;45449;-58
2022/11/07 01:54:07;;;;;;;;;8.50;4.75;;;;;21.46;60.23;100407.53;5062244;28;45476;-58
2022/11/07 01:56:34;;;;;;;;;6.25;5.50;;;;;21.45;60.23;100411.09;5062131;28;46060;-58
2022/11/07 01:58:59;;;;;;;;;5.25;5.00;;;;;21.47;60.43;100408.41;5061135;28;45311;-58
2022/11/07 02:01:25;;;;;;;;;6.00;5.25;;;;;21.47;60.03;100405.75;5061596;28;62738;-58
2022/11/07 02:03:50;;;;;;;;;9.25;7.00;;;;;21.46;60.43;100404.88;5061270;28;69740;-57
2022/11/07 02:06:38;;;;;;;;;7.25;7.25;;;;;21.47;60.58;100408.41;5060964;28;74066;-58
2022/11/07 02:09:03;;;;;;;;;5.50;4.50;;;;;21.43;60.12;100403.19;5060742;28;45376;-58
2022/11/07 02:11:29;;;;;;;;;8.25;6.00;;;;;21.44;60.00;100401.41;5059850;28;69405;-57
2022/11/07 02:13:54;;;;;;;;;12.50;5.25;;;;;21.43;60.50;100402.34;5060219;28;63068;-58
2022/11/07 02:16:19;;;;;;;;;7.00;5.25;;;;;21.42;60.09;100398.81;5060129;28;65231;-58
2022/11/07 02:18:45;;;;;;;;;5.50;5.00;;;;;21.42;59.88;100404.13;5061227;28;65781;-57
2022/11/07 02:21:42;;;;;;;;;8.75;6.25;;;;;21.41;60.40;100399.75;5059855;28;67620;-58
2022/11/07 02:24:08;;;;;;;;;4.75;4.75;;;;;21.40;60.62;100405.13;5059721;28;45288;-57
2022/11/07 02:26:34;;;;;;;;;6.50;5.00;;;;;21.40;60.33;100403.34;5060228;28;46116;-58
2022/11/07 02:28:59;;;;;;;;;7.00;4.50;;;;;21.40;60.24;100403.34;5060749;28;45325;-58
2022/11/07 02:31:24;;;;;;;;;4.50;4.00;;;;;21.39;60.31;100412.22;5061210;28;61483;-58
2022/11/07 02:33:50;;;;;;;;;6.00;4.75;;;;;21.40;60.39;100405.13;5048498;28;63255;-58
2022/11/07 02:36:17;;;;;;;;;8.75;5.75;;;;;21.39;60.23;100420.19;5060064;28;53460;-58
2022/11/07 02:38:42;;;;;;;;;6.00;5.00;;;;;21.40;60.09;100407.78;5061793;28;45248;-57
2022/11/07 02:41:13;;;;;;;;;5.50;4.25;;;;;21.38;60.43;100410.50;5060656;28;45453;-58
2022/11/07 02:43:40;;;;;;;;;5.25;5.00;;;;;21.38;60.38;100414.94;5043596;28;45465;-58
2022/11/07 02:46:07;;;;;;;;;6.25;6.25;;;;;21.37;60.74;100399.91;5043698;28;45213;-58
2022/11/07 02:48:41;;;;;;;;;6.25;4.00;;;;;21.37;60.40;100395.50;5060264;28;45262;-58
2022/11/07 02:51:06;;;;;;;;;4.75;4.00;;;;;21.37;60.37;100397.25;5060038;28;45333;-58
2022/11/07 02:53:31;;;;;;;;;5.00;4.00;;;;;21.37;60.25;100398.16;5060158;28;45251;-58
2022/11/07 02:55:57;;;;;;;;;6.00;5.00;;;;;21.37;59.89;100400.81;5060467;28;75279;-58
2022/11/07 02:58:22;;;;;;;;;5.50;4.25;;;;;21.37;60.00;100391.94;5060374;28;65517;-57
2022/11/07 03:00:47;;;;;;;;;4.75;3.25;;;;;21.37;60.04;100384.00;5060694;28;68324;-58
2022/11/07 03:03:13;;;;;;;;;6.75;5.00;;;;;21.36;60.07;100383.13;5059252;28;64707;-58
2022/11/07 03:05:38;;;;;;;;;3.00;3.00;;;;;21.35;60.50;100391.16;5060905;28;55726;-58
2022/11/07 03:08:04;;;;;;;;;7.75;4.25;;;;;21.36;60.54;100390.22;5059894;28;45292;-58
2022/11/07 03:10:29;;;;;;;;;8.00;5.00;;;;;21.35;59.85;100384.06;5061061;28;46813;-58
2022/11/07 03:12:54;;;;;;;;;5.75;4.25;;;;;21.36;60.31;100376.97;5061232;28;45578;-58
2022/11/07 03:15:20;;;;;;;;;5.50;4.00;;;;;21.35;60.19;100392.03;5060214;28;70799;-58
2022/11/07 03:17:45;;;;;;;;;4.50;3.25;;;;;21.34;60.17;100400.91;5060394;28;66229;-58
2022/11/07 03:20:11;;;;;;;;;6.00;5.25;;;;;21.35;60.01;100392.03;5060183;28;65068;-58
2022/11/07 03:22:37;;;;;;;;;6.00;4.00;;;;;21.34;60.24;100403.56;5060762;28;45375;-58
2022/11/07 03:25:02;;;;;;;;;5.00;5.00;;;;;21.34;60.08;100405.38;5060204;28;65428;-57
2022/11/07 03:27:28;;;;;;;;;4.00;4.00;;;;;21.33;60.09;100399.19;5060480;28;45277;-57
2022/11/07 03:29:53;;;;;;;;;4.00;4.00;;;;;21.33;60.41;100407.16;5042372;28;54536;-57
2022/11/07 03:32:18;;;;;;;;;4.25;3.00;;;;;21.33;59.96;100406.28;5059284;28;56697;-57
2022/11/07 03:34:44;;;;;;;;;5.75;4.25;;;;;21.33;60.10;100403.63;5060084;28;64571;-57
2022/11/07 03:37:09;;;;;;;;;5.75;5.00;;;;;21.33;60.41;100408.94;5060575;28;45229;-57
2022/11/07 03:39:36;;;;;;;;;3.25;3.25;;;;;21.31;59.96;100406.38;5060233;28;60380;-57
2022/11/07 03:42:01;;;;;;;;;4.25;3.00;;;;;21.30;60.26;100401.97;5059342;28;45228;-58
2022/11/07 03:44:27;;;;;;;;;8.00;3.75;;;;;21.30;60.12;100404.63;5059974;28;67391;-57
2022/11/07 03:46:52;;;;;;;;;3.50;3.50;;;;;21.31;60.27;100409.00;5058591;28;67366;-57
2022/11/07 03:49:17;;;;;;;;;3.00;2.00;;;;;21.31;60.31;100393.09;5059887;28;64864;-57
2022/11/07 03:51:43;;;;;;;;;6.75;4.25;;;;;21.30;60.48;100399.31;5057925;28;68988;-57
2022/11/07 03:54:09;;;;;;;;;5.00;2.00;;;;;21.31;59.96;100392.22;5075373;28;68517;-57
2022/11/07 03:56:34;;;;;;;;;3.75;2.25;;;;;21.31;60.29;100395.75;5060408;28;45354;-57
2022/11/07 03:58:59;;;;;;;;;4.75;2.75;;;;;21.30;60.35;100388.72;5058461;28;61360;-57
2022/11/07 04:01:25;;;;;;;;;6.00;4.00;;;;;21.31;60.20;100389.56;5059678;28;67776;-57
2022/11/07 04:03:50;;;;;;;;;5.50;4.25;;;;;21.31;60.18;100392.22;5059122;28;46929;-57
2022/11/07 04:06:16;;;;;;;;;2.00;2.00;;;;;21.30;59.96;100394.03;5058838;28;45414;-57
2022/11/07 04:08:41;;;;;;;;;4.25;4.25;;;;;21.31;60.01;100393.09;5059538;28;62920;-57
2022/11/07 04:11:06;;;;;;;;;6.75;4.25;;;;;21.32;60.12;100392.16;5059804;28;61244;-58
2022/11/07 04:19:01;;;;;;;;;5.00;5.00;;;;;21.31;60.09;100385.13;5060576;28;45260;-58
2022/11/07 04:21:26;;;;;;;;;5.00;3.00;;;;;21.31;60.24;100374.50;5058248;28;53926;-59
2022/11/07 04:23:51;;;;;;;;;3.00;2.00;;;;;21.31;60.02;100379.81;5059173;28;73268;-58
2022/11/07 04:29:01;;;;;;;;;6.00;2.75;;;;;21.31;60.35;100382.47;5060509;28;45329;-58
2022/11/07 04:31:26;;;;;;;;;3.75;3.75;;;;;21.31;59.89;100393.09;5058820;28;45294;-59
2022/11/07 04:33:52;;;;;;;;;3.75;3.00;;;;;21.30;59.98;100386.06;5059235;28;64236;-58
2022/11/07 04:36:17;;;;;;;;;7.00;3.00;;;;;21.31;60.27;100392.22;5057423;28;72210;-58
2022/11/07 04:38:43;;;;;;;;;5.75;4.00;;;;;21.31;60.38;100393.09;5060829;28;45333;-59
2022/11/07 04:41:17;;;;;;;;;2.00;2.00;;;;;21.30;60.29;100399.31;5063562;28;45483;-58
2022/11/07 04:43:42;;;;;;;;;3.00;3.00;;;;;21.30;60.19;100401.97;5045594;28;45465;-58
2022/11/07 04:46:08;;;;;;;;;4.00;2.75;;;;;21.30;60.34;100401.97;5062204;28;45290;-58
2022/11/07 04:48:33;;;;;;;;;2.50;2.50;;;;;21.31;60.18;100400.19;5062663;28;68000;-59
2022/11/07 04:50:58;;;;;;;;;3.00;3.00;;;;;21.29;60.49;100402.91;5062123;28;64904;-59
2022/11/07 04:53:24;;;;;;;;;3.25;3.00;;;;;21.29;60.41;100397.59;5061616;28;58506;-58
2022/11/07 04:55:49;;;;;;;;;3.00;3.00;;;;;21.28;60.30;100401.16;5062701;28;66383;-58
2022/11/07 04:58:14;;;;;;;;;3.50;3.50;;;;;21.28;60.25;100398.50;5062584;28;60427;-58
2022/11/07 05:00:40;;;;;;;;;4.75;3.25;;;;;21.29;60.30;100397.59;5063731;27;45223;-58
2022/11/07 05:03:05;;;;;;;;;3.75;3.75;;;;;21.27;60.67;100399.44;5062465;28;62972;-59
2022/11/07 05:05:31;;;;;;;;;2.00;2.00;;;;;21.29;60.25;100408.22;5062807;28;45298;-59
2022/11/07 05:07:56;;;;;;;;;4.50;3.75;;;;;21.28;60.43;100402.94;5061665;28;45251;-59
2022/11/07 05:10:26;;;;;;;;;3.25;3.25;;;;;21.27;60.15;100394.13;5060838;28;65167;-59
2022/11/07 05:12:52;;;;;;;;;3.75;3.00;;;;;21.27;60.42;100391.47;5061600;28;46366;-59
2022/11/07 05:15:17;;;;;;;;;3.50;2.25;;;;;21.28;60.22;100387.03;5063008;28;45335;-59
2022/11/07 05:17:42;;;;;;;;;3.00;2.00;;;;;21.28;60.15;100379.91;5062049;28;45271;-59
2022/11/07 05:20:20;;;;;;;;;3.25;3.00;;;;;21.28;60.30;100382.56;5061945;28;70595;-59
2022/11/07 05:25:29;;;;;;;;;3.00;2.00;;;;;21.27;60.27;100387.94;5063182;28;45397;-59
2022/11/07 05:27:55;;;;;;;;;4.75;2.00;;;;;21.27;60.40;100385.28;5062156;28;52399;-58
2022/11/07 05:30:20;;;;;;;;;5.00;3.00;;;;;21.27;60.17;100394.13;5061569;28;45483;-59
2022/11/07 05:32:45;;;;;;;;;4.00;3.00;;;;;21.27;60.38;100403.88;5061619;28;69696;-59
2022/11/07 05:35:11;;;;;;;;;2.00;2.00;;;;;21.27;60.41;100404.75;5062097;28;66409;-59
2022/11/07 05:37:36;;;;;;;;;4.25;3.00;;;;;21.27;60.42;100411.84;5062461;28;46016;-59
2022/11/07 05:40:01;;;;;;;;;4.00;2.50;;;;;21.26;60.74;100407.44;5060942;28;63976;-59
2022/11/07 05:42:27;;;;;;;;;3.00;2.00;;;;;21.25;60.56;100406.56;5044326;28;45257;-59
2022/11/07 05:44:52;;;;;;;;;3.00;2.00;;;;;21.25;60.37;100411.88;5061798;28;70956;-59
2022/11/07 05:47:18;;;;;;;;;1.75;1.50;;;;;21.26;60.34;100418.03;5060585;28;58411;-59
2022/11/07 05:49:43;;;;;;;;;3.50;3.00;;;;;21.26;60.58;100420.69;5060142;28;68179;-59
2022/11/07 05:52:08;;;;;;;;;3.25;1.75;;;;;21.25;60.56;100421.63;5061197;28;66300;-59
2022/11/07 05:54:34;;;;;;;;;2.50;1.75;;;;;21.26;60.28;100420.69;5062576;28;50463;-60
2022/11/07 05:56:59;;;;;;;;;3.00;2.00;;;;;21.27;60.32;100422.47;5062019;28;51413;-59
2022/11/07 05:59:24;;;;;;;;;2.50;1.00;;;;;21.28;60.36;100426.84;5061232;28;45390;-59
2022/11/07 06:01:51;;;;;;;;;4.50;3.00;;;;;21.29;60.48;100412.66;5061645;28;61539;-59
2022/11/07 06:04:16;;;;;;;;;4.00;4.00;;;;;21.28;60.52;100430.34;5044193;28;45808;-59
2022/11/07 06:06:41;;;;;;;;;4.75;4.50;;;;;21.30;60.40;100427.66;5062068;28;45379;-59
2022/11/07 06:09:07;;;;;;;;;0.25;0.25;;;;;21.31;60.65;100430.25;5061380;28;68500;-59
2022/11/07 06:11:32;;;;;;;;;4.75;2.00;;;;;21.31;60.31;100416.13;5060907;28;73350;-59
2022/11/07 06:13:57;;;;;;;;;1.50;1.50;;;;;21.33;60.23;100420.44;5061174;28;71542;-59
2022/11/07 06:16:23;;;;;;;;;2.00;2.00;;;;;21.34;60.64;100413.31;5062215;28;45284;-59
2022/11/07 06:18:49;;;;;;;;;2.25;2.00;;;;;21.33;60.76;100420.44;5057523;28;61985;-59
2022/11/07 06:21:15;;;;;;;;;5.25;4.00;;;;;21.34;60.69;100422.16;5061625;28;45392;-59
2022/11/07 06:23:41;;;;;;;;;2.50;2.00;;;;;21.35;60.85;100430.97;5043937;28;45353;-60
2022/11/07 06:26:06;;;;;;;;;3.00;2.00;;;;;21.35;60.87;100429.19;5062327;28;45612;-59
2022/11/07 06:28:31;;;;;;;;;2.25;2.25;;;;;21.37;60.63;100432.66;5060291;28;45243;-59
2022/11/07 06:31:00;;;;;;;;;3.50;3.00;;;;;21.38;61.00;100439.72;5060338;28;70210;-59
2022/11/07 06:33:26;;;;;;;;;1.75;1.50;;;;;21.37;60.65;100432.66;5056678;28;45314;-59
2022/11/07 06:35:51;;;;;;;;;4.50;3.50;;;;;21.39;60.46;100441.44;5060866;28;63424;-59
2022/11/07 06:38:16;;;;;;;;;3.75;2.75;;;;;21.42;60.80;100445.75;5061016;28;56281;-59
2022/11/07 06:40:42;;;;;;;;;3.00;2.00;;;;;21.44;61.05;100449.19;5059582;28;45990;-59
2022/11/07 06:43:09;;;;;;;;;1.50;1.50;;;;;21.45;60.36;100450.91;5060197;28;52827;-59
2022/11/07 06:45:34;;;;;;;;;5.75;2.00;;;;;21.47;60.81;100448.22;5061738;28;45247;-59
2022/11/07 06:48:00;;;;;;;;;3.50;3.00;;;;;21.49;60.77;100441.06;5060124;28;45235;-60
2022/11/07 06:50:25;;;;;;;;;5.00;2.00;;;;;21.51;61.04;100448.03;5058662;28;61160;-59
2022/11/07 06:52:51;;;;;;;;;5.25;3.25;;;;;21.52;61.25;100456.84;5054231;28;67945;-60
2022/11/07 06:55:16;;;;;;;;;2.00;2.00;;;;;21.53;61.04;100455.94;5059500;28;45577;-59
2022/11/07 06:57:41;;;;;;;;;3.00;3.00;;;;;21.54;61.12;100457.66;5058796;28;52770;-60
2022/11/07 07:00:07;;;;;;;;;3.00;3.00;;;;;21.55;61.03;100454.09;5058795;28;60402;-60
2022/11/07 07:02:33;;;;;;;;;4.00;2.25;;;;;21.56;60.93;100456.69;5058735;28;45504;-60
2022/11/07 07:04:58;;;;;;;;;2.50;2.50;;;;;21.58;60.61;100456.63;5059136;28;61175;-62
2022/11/07 07:07:24;;;;;;;;;4.00;2.00;;;;;21.58;60.90;100453.97;5061081;28;45353;-60
2022/11/07 07:09:49;;;;;;;;;3.50;3.00;;;;;21.59;61.30;100461.88;5059869;28;73766;-60
2022/11/07 07:12:14;;;;;;;;;3.25;3.00;;;;;21.60;60.83;100463.59;5060630;28;58023;-61
2022/11/07 07:14:40;;;;;;;;;3.00;2.00;;;;;21.61;61.28;100467.09;5061111;28;45372;-61
2022/11/07 07:17:05;;;;;;;;;1.50;1.50;;;;;21.61;61.44;100467.09;5061154;28;45449;-60
2022/11/07 07:19:31;;;;;;;;;3.75;2.50;;;;;21.63;60.89;100470.56;5060969;28;45992;-60
2022/11/07 07:21:56;;;;;;;;;3.75;2.00;;;;;21.63;60.71;100475.88;5060634;28;59388;-60
2022/11/07 07:24:21;;;;;;;;;3.50;2.00;;;;;21.64;61.23;100470.53;5060683;28;52251;-60
2022/11/07 07:26:47;;;;;;;;;4.00;2.00;;;;;21.65;61.31;100474.03;5058182;28;72131;-60
2022/11/07 07:29:12;;;;;;;;;2.00;2.00;;;;;21.65;60.94;100479.34;5059660;28;64034;-60
2022/11/07 07:31:37;;;;;;;;;2.00;2.00;;;;;21.65;61.00;100474.03;5060004;28;68650;-60
2022/11/07 07:34:03;;;;;;;;;3.75;3.00;;;;;21.65;60.99;100471.38;5059484;28;45337;-60
2022/11/07 07:36:28;;;;;;;;;3.50;3.00;;;;;21.66;60.67;100473.97;5040286;28;66039;-60
2022/11/07 07:38:54;;;;;;;;;3.25;2.00;;;;;21.68;60.79;100473.91;5059354;28;45579;-60
2022/11/07 07:41:19;;;;;;;;;2.00;2.00;;;;;21.68;61.09;100471.25;5057358;28;58186;-60
2022/11/07 07:43:44;;;;;;;;;4.75;2.75;;;;;21.68;61.20;100473.91;5060316;28;45271;-60
2022/11/07 07:46:13;;;;;;;;;3.75;3.00;;;;;21.69;61.42;100465.88;5055165;28;60350;-59
2022/11/07 07:48:39;;;;;;;;;2.75;2.75;;;;;21.71;61.13;100479.06;5518331;22;46842;-49
2022/11/07 07:51:04;;;;;;;;;3.25;3.25;;;;;21.74;61.18;100473.66;5033913;28;67562;-50
2022/11/07 07:53:30;;;;;;;;;5.50;3.75;;;;;21.76;60.95;100471.78;5020440;28;46340;-48
2022/11/07 07:55:58;;;;;;;;;3.00;3.00;;;;;21.81;61.38;100474.28;5037621;28;45499;-48
2022/11/07 07:58:24;;;;;;;;;5.25;2.25;;;;;21.84;61.35;100469.69;5039812;28;47082;-50
2022/11/07 08:00:51;;;;;;;;;2.25;1.75;;;;;21.87;60.96;100472.22;5039119;28;45409;-48
2022/11/07 08:03:17;;;;;;;;;3.00;1.25;;;;;21.89;60.73;100481.00;5038807;28;45369;-50
2022/11/07 08:05:42;;;;;;;;;2.25;1.50;;;;;21.94;60.88;100486.97;5020233;28;46857;-49
2022/11/07 08:08:08;;;;;;;;;4.25;3.50;;;;;21.97;59.65;100489.50;5038317;28;45458;-50
2022/11/07 08:10:33;;;;;;;;;3.00;3.00;;;;;22.00;60.02;100485.84;5005372;28;45238;-49
2022/11/07 08:12:59;;;;;;;;;2.50;2.25;;;;;22.04;59.71;100489.25;5053576;28;45922;-49
2022/11/07 08:15:24;;;;;;;;;1.50;0.00;;;;;22.06;59.91;100503.31;5038872;28;45416;-48
2022/11/07 08:17:50;;;;;;;;;2.75;1.75;;;;;22.08;59.67;100496.22;5038513;28;45266;-47
2022/11/07 08:20:16;;;;;;;;;4.25;2.75;;;;;22.12;59.19;100513.75;5038451;28;45247;-49
2022/11/07 08:22:41;;;;;;;;;2.00;2.00;;;;;22.14;59.85;100509.22;5053582;28;45281;-50
2022/11/07 08:25:08;;;;;;;;;2.00;2.00;;;;;22.17;59.06;100514.44;5019808;28;63077;-51
2022/11/07 08:27:33;;;;;;;;;2.75;2.75;;;;;22.19;59.54;100513.41;5037309;28;45362;-52
2022/11/07 08:29:59;;;;;;;;;3.75;3.75;;;;;22.21;59.06;100505.38;5037135;28;69226;-48
2022/11/07 08:32:27;;;;;;;;;4.75;2.75;;;;;22.21;59.36;100508.03;5036790;28;45271;-47
2022/11/07 08:34:52;;;;;;;;;3.75;2.00;;;;;22.23;59.60;100508.81;5038197;28;45216;-51
2022/11/07 08:37:18;;;;;;;;;4.50;2.00;;;;;22.23;59.04;100507.03;5038677;28;45403;-48
2022/11/07 08:39:43;;;;;;;;;3.50;2.50;;;;;22.22;59.39;100507.09;5037406;28;45330;-47
2022/11/07 08:42:09;;;;;;;;;5.00;3.00;;;;;22.21;58.71;100510.69;5039400;28;55751;-49
2022/11/07 08:44:35;;;;;;;;;6.00;4.00;;;;;22.20;58.96;100514.28;5038868;28;62041;-48
2022/11/07 08:47:01;;;;;;;;;3.25;3.00;;;;;22.18;59.58;100513.50;5039572;28;46987;-51
2022/11/07 08:49:27;;;;;;;;;3.75;2.25;;;;;22.16;58.77;100518.88;5037549;28;45938;-48
2022/11/07 08:51:52;;;;;;;;;3.25;3.25;;;;;22.16;59.18;100518.00;5039164;28;57807;-51
2022/11/07 08:54:17;;;;;;;;;4.00;4.00;;;;;22.14;59.04;100519.84;5038460;28;71429;-52
2022/11/07 08:56:43;;;;;;;;;2.75;2.00;;;;;22.13;58.96;100516.31;5017744;28;73468;-52
2022/11/07 08:59:09;;;;;;;;;5.25;5.00;;;;;22.12;59.68;100516.41;5038932;28;62228;-53
2022/11/07 09:01:35;;;;;;;;;3.50;2.75;;;;;22.10;59.47;100518.25;5039695;28;45487;-48
2022/11/07 09:04:00;;;;;;;;;4.00;2.25;;;;;;;;5039062;28;46445;-49
2022/11/07 09:06:25;;;;;;;;;3.67;3.00;;;;;22.09;59.53;100532.47;5020613;28;66492;-50
2022/11/07 09:08:51;;;;;;;;;2.50;2.00;;;;;22.07;58.87;100523.69;5039001;28;45219;-52
2022/11/07 09:11:17;;;;;;;;;5.00;3.50;;;;;22.06;59.66;100535.22;5038179;28;49761;-53
2022/11/07 09:13:43;;;;;;;;;3.75;2.75;;;;;22.04;59.24;100539.75;5038005;28;45196;-50
2022/11/07 09:16:09;;;;;;;;;5.00;3.00;;;;;22.02;59.58;100545.97;5039247;28;46809;-49
2022/11/07 09:18:34;;;;;;;;;2.00;2.00;;;;;22.01;59.17;100536.28;5037511;28;45305;-53
2022/11/07 09:20:59;;;;;;;;;4.50;2.75;;;;;22.00;59.20;100534.56;5038179;28;45265;-49
2022/11/07 09:23:25;;;;;;;;;3.50;2.00;;;;;22.01;59.71;100535.41;5039162;28;45478;-49
2022/11/07 09:25:50;;;;;;;;;5.00;3.25;;;;;22.01;59.85;100538.09;5026804;28;51760;-48
2022/11/07 09:28:16;;;;;;;;;4.00;3.00;;;;;22.00;59.33;100531.91;5058073;28;45248;-51
2022/11/07 09:30:41;;;;;;;;;4.00;3.00;;;;;22.01;59.26;100535.41;5042372;28;48276;-50
2022/11/07 09:33:07;;;;;;;;;4.25;4.25;;;;;22.01;59.29;100530.09;5041575;28;61844;-50
2022/11/07 09:35:32;;;;;;;;;3.50;2.50;;;;;22.00;59.22;100533.69;5057537;28;59331;-52
2022/11/07 09:37:57;;;;;;;;;4.25;1.75;;;;;22.00;59.18;100529.25;5027927;28;62527;-46
2022/11/07 09:40:39;;;;;;;;;4.00;2.75;;;;;22.00;59.78;100531.91;5041967;28;47999;-51
2022/11/07 09:43:40;;;;;;;;;4.00;3.25;;;;;22.00;59.74;100520.41;5057733;28;45284;-48
2022/11/07 09:46:11;;;;;;;;;5.00;3.25;;;;;21.99;59.74;100530.19;5044204;28;47338;-48
2022/11/07 09:48:45;;;;;;;;;5.00;4.00;;;;;22.00;59.76;100528.38;5041749;28;45413;-48
2022/11/07 09:51:30;;;;;;;;;2.25;2.25;;;;;22.00;59.63;100528.38;5039440;28;45559;-48
2022/11/07 09:53:57;;;;;;;;;3.25;3.25;;;;;21.99;59.34;100530.19;5038159;28;45303;-47
2022/11/07 09:56:23;;;;;;;;;4.50;3.75;;;;;21.99;59.30;100535.50;5039757;28;46336;-49
2022/11/07 09:58:50;;;;;;;;;2.00;2.00;;;;;21.98;59.15;100531.09;5040864;28;65276;-49
2022/11/07 10:01:17;;;;;;;;;7.00;4.25;;;;;21.99;59.59;100530.19;5040774;28;45346;-51
2022/11/07 10:03:42;;;;;;;;;3.00;3.00;;;;;22.01;59.60;100532.75;5039807;28;45697;-49
2022/11/07 10:06:20;;;;;;;;;4.00;2.00;;;;;22.01;60.23;100546.91;5039325;28;45358;-52
2022/11/07 10:09:10;;;;;;;;;5.00;3.00;;;;;22.00;59.94;100545.19;5039606;28;45351;-47
2022/11/07 10:11:47;;;;;;;;;4.25;2.25;;;;;22.00;60.00;100539.88;5024071;28;45325;-50
2022/11/07 10:14:27;;;;;;;;;3.00;3.00;;;;;22.01;59.82;100527.44;5056939;28;45432;-48
2022/11/07 10:17:03;;;;;;;;;5.25;3.00;;;;;22.03;60.62;100536.22;5053779;28;46283;-50
2022/11/07 10:19:48;;;;;;;;;4.00;1.00;;;;;21.99;57.81;100540.81;5037882;28;48207;-43
2022/11/07 10:22:16;;;;;;;;;6.00;4.75;;;;;21.83;57.41;100531.72;5040534;28;45357;-43
2022/11/07 10:24:56;;;;;;;;;2.75;2.75;;;;;21.66;56.75;100536.84;5040164;28;45422;-43
2022/11/07 10:27:22;;;;;;;;;3.25;2.75;;;;;21.52;57.77;100525.91;5028551;28;45437;-47
2022/11/07 10:29:51;;;;;;;;;5.25;2.75;;;;;21.41;57.27;100521.00;5040142;28;45380;-42
2022/11/07 10:32:34;;;;;;;;;5.75;2.75;;;;;21.31;57.09;100525.81;5041642;28;45350;-42
2022/11/07 10:35:11;;;;;;;;;2.00;2.00;;;;;21.17;57.14;100515.69;5035401;28;45440;-43
2022/11/07 10:37:37;;;;;;;;;4.75;2.75;;;;;21.08;56.72;100528.44;5038647;28;46212;-43
2022/11/07 10:40:15;;;;;;;;;3.00;2.00;;;;;20.97;56.56;100526.19;5041053;28;45589;-45
2022/11/07 10:42:40;;;;;;;;;4.00;3.00;;;;;20.87;56.71;100515.06;5022390;28;45325;-43
2022/11/07 10:45:10;;;;;;;;;3.50;3.25;;;;;20.83;57.62;100518.72;5019431;28;67597;-44
2022/11/07 10:47:38;;;;;;;;;3.00;3.00;;;;;20.80;57.59;100520.63;5023890;28;45687;-44
2022/11/07 10:50:36;;;;;;;;;2.25;2.25;;;;;20.80;57.18;100526.81;5039480;28;45204;-46
2022/11/07 10:53:08;;;;;;;;;3.25;1.50;;;;;20.77;57.64;100518.97;5060342;28;58769;-50
2022/11/07 10:55:44;;;;;;;;;3.25;2.25;;;;;20.76;57.79;100513.69;5039658;28;45299;-47
2022/11/07 10:58:20;;;;;;;;;5.50;1.25;;;;;20.75;57.63;100522.56;5039465;28;46511;-49
2022/11/07 11:00:59;;;;;;;;;4.50;2.00;;;;;20.75;57.97;100533.19;5056231;28;45325;-49
2022/11/07 11:03:28;;;;;;;;;4.50;2.75;;;;;20.77;58.11;100528.72;5039947;28;45302;-48
2022/11/07 11:05:54;;;;;;;;;2.75;1.25;;;;;20.77;58.09;100524.28;5036837;28;45180;-46
2022/11/07 11:08:21;;;;;;;;;3.00;2.00;;;;;20.78;58.16;100528.66;5053282;28;45812;-47
2022/11/07 11:10:46;;;;;;;;;6.25;3.00;;;;;20.80;58.29;100523.28;5034808;28;45241;-49
2022/11/07 11:13:31;;;;;;;;;3.75;3.25;;;;;20.83;58.02;100517.88;5041125;28;45296;-50
2022/11/07 11:16:00;;;;;;;;;7.50;3.75;;;;;20.83;58.48;100508.13;5038402;28;45443;-50
2022/11/07 11:18:25;;;;;;;;;5.00;4.00;;;;;20.85;58.49;100516.03;5029482;28;46122;-49
2022/11/07 11:20:55;;;;;;;;;4.00;3.00;;;;;20.88;58.04;100514.13;5038067;28;57426;-47
2022/11/07 11:23:24;;;;;;;;;5.00;2.75;;;;;20.88;58.31;100506.16;5040447;28;45180;-49
2022/11/07 11:25:50;;;;;;;;;3.00;2.25;;;;;20.89;58.18;100507.03;5038352;28;45560;-50
2022/11/07 11:28:21;;;;;;;;;5.50;3.00;;;;;20.91;58.28;100518.44;5039023;28;46321;-47
2022/11/07 11:30:47;;;;;;;;;4.00;3.00;;;;;20.93;58.31;100513.06;5038014;28;45482;-46
2022/11/07 11:33:15;;;;;;;;;4.75;3.75;;;;;20.95;58.07;100511.25;5039748;28;45263;-47
2022/11/07 11:35:54;;;;;;;;;3.75;3.50;;;;;20.97;57.99;100509.41;5021646;28;45315;-46